Avondale, Missouri
Current Conditions -  °F | °C
As of 8:06 AM on Monday 20 Oct 2014 (Local Time) from KMKC Reporting Station
NA  
Wind Chill: 54°   Ceiling: NA
Heat Index: 54°   Visibility: 8mi
Dew Point: 51°   Wind: 0mph
Humidity: 90%   Direction: NA
Pressure: 30.02"   Gusts: NA
Location:  39.1657°N, 94.5231°W
Report Text: KMKC 201306Z 00000KT 8SM 12/11 A3002 RMK AO2 T01220106
Loading
Personal Weather Stations






























Interactive Weather Map
Tropical Storm Tracking
New forecast layout! Learn more

10-Day Weather Forecast

Advertisements
Track Severe Weather on mobile